Time;durP1;ratioP1;P1;durP2;ratioP2;P2;SDS_P1;SDS_P2;PMS_P1;PMS_P2;Temp;Humidity;BMP_temperature;BMP_pressure;BME280_temperature;BME280_humidity;BME280_pressure;Samples;Min_cycle;Max_cycle;Signal;HPM_P1;HPM_P2
2022/12/02 00:01:27;;;;;;;22.37;20.00;;;8.90;46.30;;;;;;10423330;28;20233;-69
2022/12/02 00:06:31;;;;;;;23.40;20.13;;;8.90;46.40;;;;;;10414202;28;20233;-71
2022/12/02 00:11:34;;;;;;;22.47;20.07;;;8.90;46.30;;;;;;10422415;28;20724;-70
2022/12/02 00:16:39;;;;;;;21.67;18.90;;;8.80;46.30;;;;;;10422254;28;20240;-76
2022/12/02 00:21:42;;;;;;;21.80;19.43;;;8.80;46.60;;;;;;10416309;28;20265;-76
2022/12/02 00:26:45;;;;;;;19.13;17.10;;;8.80;46.40;;;;;;10421488;28;20233;-76
2022/12/02 00:31:50;;;;;;;19.90;17.33;;;8.80;46.50;;;;;;10425320;28;20299;-76
2022/12/02 00:36:53;;;;;;;23.30;19.90;;;8.80;46.50;;;;;;10421611;28;20228;-76
2022/12/02 00:41:56;;;;;;;25.10;20.63;;;8.80;46.30;;;;;;10422234;28;20236;-75
2022/12/02 00:47:01;;;;;;;24.80;20.30;;;8.80;46.20;;;;;;10420964;28;20764;-75
2022/12/02 00:52:04;;;;;;;22.57;18.87;;;8.80;46.50;;;;;;10419372;28;20234;-75
2022/12/02 00:57:07;;;;;;;21.87;17.27;;;8.70;46.50;;;;;;10422567;28;20237;-76
2022/12/02 01:02:12;;;;;;;22.97;19.67;;;8.70;46.60;;;;;;10423484;28;20237;-75
2022/12/02 01:07:15;;;;;;;23.30;16.90;;;8.80;46.80;;;;;;10420527;28;20261;-75
2022/12/02 01:12:18;;;;;;;24.23;19.40;;;8.80;46.70;;;;;;10419544;28;20244;-77
2022/12/02 01:17:23;;;;;;;25.87;19.83;;;8.80;46.60;;;;;;10416522;28;20252;-75
2022/12/02 01:22:26;;;;;;;23.83;20.03;;;8.80;46.60;;;;;;10414019;28;20284;-76
2022/12/02 01:27:29;;;;;;;22.07;18.23;;;8.80;46.70;;;;;;10421790;28;21006;-76
2022/12/02 01:32:34;;;;;;;23.73;19.80;;;8.90;46.60;;;;;;10419970;28;20260;-76
2022/12/02 01:37:37;;;;;;;24.17;19.80;;;8.90;46.50;;;;;;10417512;28;20802;-76
2022/12/02 01:42:41;;;;;;;22.87;17.90;;;8.90;46.50;;;;;;10418111;28;20270;-76
2022/12/02 01:47:46;;;;;;;26.23;20.67;;;8.80;46.40;;;;;;10415203;28;20619;-76
2022/12/02 01:52:49;;;;;;;23.43;17.80;;;8.80;46.40;;;;;;10416628;28;20237;-76
2022/12/02 01:58:00;;;;;;;26.20;20.37;;;8.80;46.30;;;;;;10413126;28;20302;-73
2022/12/02 02:03:04;;;;;;;22.97;20.50;;;8.80;46.40;;;;;;10417672;28;20245;-71
2022/12/02 02:08:11;;;;;;;22.73;19.83;;;8.80;46.40;;;;;;10410885;28;20240;-71
2022/12/02 02:13:16;;;;;;;24.77;21.97;;;8.80;46.30;;;;;;10420563;28;20251;-72
2022/12/02 02:18:20;;;;;;;24.50;21.30;;;8.80;46.30;;;;;;10415888;28;20644;-72
2022/12/02 02:23:26;;;;;;;25.77;21.30;;;8.70;46.40;;;;;;10419221;28;20234;-72
2022/12/02 02:28:30;;;;;;;30.67;24.17;;;8.70;46.50;;;;;;10424090;28;20252;-72
2022/12/02 02:33:34;;;;;;;30.47;25.63;;;8.60;46.30;;;;;;10423058;28;20780;-72
2022/12/02 02:38:39;;;;;;;31.53;26.57;;;8.60;46.40;;;;;;10423003;28;20294;-72
2022/12/02 02:43:43;;;;;;;34.10;26.13;;;8.60;46.50;;;;;;10422475;28;20283;-72
2022/12/02 02:48:48;;;;;;;33.30;26.07;;;8.50;46.30;;;;;;10420419;28;20235;-72
2022/12/02 02:53:52;;;;;;;32.77;26.97;;;8.50;46.40;;;;;;10418253;28;20252;-72
2022/12/02 02:58:55;;;;;;;31.67;26.23;;;8.40;46.40;;;;;;10425909;28;20249;-77
2022/12/02 03:04:02;;;;;;;36.60;27.23;;;8.40;46.30;;;;;;10426528;28;20226;-77
2022/12/02 03:09:10;;;;;;;34.80;27.67;;;8.40;46.50;;;;;;10421439;28;20590;-77
2022/12/02 03:14:14;;;;;;;35.50;27.07;;;8.40;46.50;;;;;;10428570;28;20240;-77
2022/12/02 03:19:21;;;;;;;32.57;26.77;;;8.30;46.40;;;;;;10417985;28;20236;-77
2022/12/02 03:24:26;;;;;;;38.10;27.70;;;8.30;46.50;;;;;;10421196;28;20237;-77
2022/12/02 03:29:30;;;;;;;33.40;26.50;;;8.30;46.60;;;;;;10422473;28;20234;-77
2022/12/02 03:34:34;;;;;;;34.43;27.07;;;8.30;46.50;;;;;;10421677;28;20233;-68
2022/12/02 03:39:39;;;;;;;33.23;26.73;;;8.30;46.50;;;;;;10417486;28;20232;-71
2022/12/02 03:44:42;;;;;;;33.17;26.63;;;8.20;46.60;;;;;;10418604;28;20242;-71
2022/12/02 03:49:46;;;;;;;30.60;25.50;;;8.20;46.50;;;;;;10420819;28;20292;-71
2022/12/02 03:54:50;;;;;;;31.87;25.57;;;8.20;46.50;;;;;;10420955;28;20587;-68
2022/12/02 03:59:57;;;;;;;33.27;26.93;;;8.20;46.80;;;;;;10415727;28;20240;-68
2022/12/02 04:05:00;;;;;;;33.67;27.67;;;8.20;46.70;;;;;;10419155;28;20229;-68
2022/12/02 04:10:06;;;;;;;34.40;27.37;;;8.20;46.70;;;;;;10422337;28;20708;-69
2022/12/02 04:15:10;;;;;;;34.10;27.30;;;8.20;46.90;;;;;;10420028;28;20233;-69
2022/12/02 04:20:14;;;;;;;34.07;26.30;;;8.20;46.70;;;;;;10414443;28;20291;-69
2022/12/02 04:25:18;;;;;;;32.60;26.50;;;8.20;46.70;;;;;;10414548;28;20245;-69
2022/12/02 04:30:21;;;;;;;32.80;26.90;;;8.20;46.90;;;;;;10418375;28;20229;-68
2022/12/02 04:35:24;;;;;;;32.20;26.50;;;8.20;46.70;;;;;;10417275;28;20237;-69
2022/12/02 04:40:29;;;;;;;32.63;26.90;;;8.20;46.80;;;;;;10414526;28;20233;-69
2022/12/02 04:45:32;;;;;;;34.73;26.80;;;8.10;46.80;;;;;;10419618;28;20807;-69
2022/12/02 04:50:35;;;;;;;35.20;27.43;;;8.10;46.60;;;;;;10413026;28;20237;-71
2022/12/02 04:55:42;;;;;;;31.63;25.23;;;8.10;46.60;;;;;;10411565;28;20798;-71
2022/12/02 05:00:45;;;;;;;33.07;26.37;;;8.10;46.70;;;;;;10412462;28;20256;-73
2022/12/02 05:05:49;;;;;;;33.53;26.70;;;8.10;46.60;;;;;;10409752;28;20229;-71
2022/12/02 05:10:53;;;;;;;33.20;25.37;;;8.00;46.50;;;;;;10415133;28;20238;-71
2022/12/02 05:15:56;;;;;;;31.97;25.97;;;8.00;46.70;;;;;;10416138;28;20287;-68
2022/12/02 05:20:59;;;;;;;33.67;26.33;;;8.00;46.70;;;;;;10414656;28;20614;-68
2022/12/02 05:26:04;;;;;;;33.63;25.47;;;8.00;46.70;;;;;;10417264;28;20238;-76
2022/12/02 05:31:07;;;;;;;30.57;25.50;;;8.00;46.70;;;;;;10420214;28;20240;-68
2022/12/02 05:36:11;;;;;;;31.70;25.57;;;8.00;46.80;;;;;;10410054;28;20245;-72
2022/12/02 05:41:16;;;;;;;34.43;26.47;;;8.00;46.70;;;;;;10417979;28;20456;-72
2022/12/02 05:46:21;;;;;;;36.20;26.30;;;8.00;46.70;;;;;;10412063;28;20586;-70
2022/12/02 05:51:26;;;;;;;33.13;25.47;;;8.00;46.70;;;;;;10422680;28;20233;-76
2022/12/02 05:56:31;;;;;;;31.23;24.97;;;8.00;46.70;;;;;;10415110;28;20220;-71
2022/12/02 06:01:37;;;;;;;33.20;26.43;;;8.00;46.90;;;;;;10417560;28;20239;-71
2022/12/02 06:06:41;;;;;;;32.10;24.93;;;7.90;46.90;;;;;;10425389;28;20570;-71
2022/12/02 06:11:47;;;;;;;31.97;25.30;;;7.90;46.80;;;;;;10424774;28;20233;-71
2022/12/02 06:16:53;;;;;;;33.10;24.97;;;8.00;47.00;;;;;;10424720;28;20921;-68
2022/12/02 06:21:59;;;;;;;30.43;24.27;;;8.00;47.00;;;;;;10425006;28;20329;-69
2022/12/02 06:27:03;;;;;;;31.50;24.70;;;7.90;46.80;;;;;;10422201;28;20225;-69
2022/12/02 06:32:13;;;;;;;32.87;25.27;;;8.00;47.70;;;;;;10418590;28;20807;-69
2022/12/02 06:37:21;;;;;;;28.97;23.30;;;8.00;47.40;;;;;;10416546;28;20763;-68
2022/12/02 06:42:31;;;;;;;31.40;24.13;;;8.00;47.00;;;;;;10419940;28;20705;-71
2022/12/02 06:48:06;;;;;;;31.33;23.87;;;8.00;47.00;;;;;;10420345;28;20225;-71
2022/12/02 06:53:32;;;;;;;33.13;24.47;;;8.00;46.90;;;;;;10418799;28;20458;-70
2022/12/02 06:58:43;;;;;;;31.77;24.57;;;8.00;46.90;;;;;;10419127;28;20264;-70
2022/12/02 07:03:56;;;;;;;33.37;24.10;;;8.00;46.80;;;;;;10422504;28;20233;-71
2022/12/02 07:09:04;;;;;;;32.50;24.70;;;8.00;46.70;;;;;;10419765;28;20704;-70
2022/12/02 07:14:13;;;;;;;29.97;23.67;;;7.90;46.50;;;;;;10420540;28;20259;-70
2022/12/02 07:19:20;;;;;;;32.67;24.83;;;7.90;46.70;;;;;;10420791;28;20237;-75
2022/12/02 07:24:25;;;;;;;32.70;24.03;;;7.90;46.70;;;;;;10420482;28;20237;-76
2022/12/02 07:29:31;;;;;;;31.83;25.10;;;7.80;46.60;;;;;;10419980;28;20229;-75
2022/12/02 07:34:34;;;;;;;35.07;24.70;;;7.80;46.90;;;;;;10418465;28;20240;-75
2022/12/02 07:39:37;;;;;;;29.40;22.73;;;7.80;46.60;;;;;;10418407;28;20744;-76
2022/12/02 07:44:43;;;;;;;36.20;25.90;;;7.80;46.70;;;;;;10423135;28;20248;-75
2022/12/02 07:49:46;;;;;;;33.53;23.57;;;7.80;46.80;;;;;;10414844;28;20274;-75
2022/12/02 07:54:49;;;;;;;33.23;25.23;;;7.80;46.80;;;;;;10418989;28;20228;-75
2022/12/02 07:59:55;;;;;;;34.87;24.57;;;7.70;46.80;;;;;;10419459;28;20229;-71
2022/12/02 08:04:58;;;;;;;34.13;24.67;;;7.80;47.00;;;;;;10419696;28;20672;-71
2022/12/02 08:10:01;;;;;;;32.37;23.87;;;7.80;46.90;;;;;;10418569;28;20240;-71
2022/12/02 08:15:07;;;;;;;31.57;24.37;;;7.80;46.90;;;;;;10419198;28;20239;-71
2022/12/02 08:20:12;;;;;;;28.83;23.50;;;7.80;47.10;;;;;;10418824;28;20245;-71
2022/12/02 08:25:15;;;;;;;31.30;23.53;;;7.80;47.00;;;;;;10415464;28;20230;-71
2022/12/02 08:30:20;;;;;;;36.40;27.77;;;7.80;47.00;;;;;;10403056;28;20291;-71
2022/12/02 08:35:23;;;;;;;31.07;23.83;;;7.80;47.10;;;;;;10408749;28;20240;-71
2022/12/02 08:40:26;;;;;;;32.17;23.30;;;7.80;47.00;;;;;;10409898;28;20237;-71
2022/12/02 08:45:31;;;;;;;30.40;22.37;;;7.80;47.00;;;;;;10405072;28;20230;-71
2022/12/02 08:50:34;;;;;;;29.67;22.13;;;7.80;47.00;;;;;;10405393;28;20229;-70
2022/12/02 08:55:37;;;;;;;24.83;19.77;;;7.80;47.00;;;;;;10406280;28;20241;-71
2022/12/02 09:00:42;;;;;;;27.47;21.70;;;7.80;47.00;;;;;;10403673;28;20294;-70
2022/12/02 09:05:45;;;;;;;25.73;20.33;;;7.80;47.10;;;;;;10402717;28;20225;-71
2022/12/02 09:10:48;;;;;;;24.17;18.77;;;7.80;47.10;;;;;;10405403;28;20265;-71
2022/12/02 09:15:53;;;;;;;20.77;17.60;;;7.80;47.20;;;;;;10406491;28;20739;-70
2022/12/02 09:20:56;;;;;;;22.23;17.10;;;7.80;47.20;;;;;;10403004;28;20245;-71
2022/12/02 09:25:59;;;;;;;19.40;16.17;;;7.80;46.90;;;;;;10407190;28;20641;-71
2022/12/02 09:31:04;;;;;;;20.27;16.17;;;7.80;46.70;;;;;;10408878;28;20776;-71
2022/12/02 09:36:08;;;;;;;17.93;15.43;;;7.80;46.90;;;;;;10403646;28;20272;-71
2022/12/02 09:41:16;;;;;;;18.73;15.53;;;7.80;46.90;;;;;;10402753;28;20241;-70
2022/12/02 09:46:20;;;;;;;16.00;13.37;;;7.80;46.80;;;;;;10402951;28;20278;-71
2022/12/02 09:51:27;;;;;;;15.30;13.70;;;7.80;46.90;;;;;;10401539;28;20228;-71
2022/12/02 09:56:30;;;;;;;13.90;12.50;;;7.80;46.90;;;;;;10413885;28;20721;-71
2022/12/02 10:01:34;;;;;;;13.83;12.43;;;7.90;46.90;;;;;;10413098;28;20232;-71
2022/12/02 10:06:38;;;;;;;15.20;12.77;;;7.90;47.10;;;;;;10411445;28;20319;-71
2022/12/02 10:11:41;;;;;;;13.97;12.47;;;7.90;47.00;;;;;;10410214;28;20353;-71
2022/12/02 10:16:45;;;;;;;14.37;11.97;;;8.00;47.10;;;;;;10410073;28;20243;-71
2022/12/02 10:21:50;;;;;;;12.47;11.27;;;8.00;47.10;;;;;;10407216;28;20230;-71
2022/12/02 10:26:57;;;;;;;12.10;10.80;;;8.00;46.90;;;;;;10405797;28;20241;-71
2022/12/02 10:32:04;;;;;;;13.03;11.67;;;8.00;46.90;;;;;;10409064;28;20288;-71
2022/12/02 10:37:23;;;;;;;12.63;11.20;;;8.10;46.80;;;;;;10410479;28;20853;-71
2022/12/02 10:42:26;;;;;;;11.37;10.23;;;8.10;46.60;;;;;;10417077;28;20245;-75
2022/12/02 10:47:31;;;;;;;11.03;9.93;;;8.00;46.60;;;;;;10416553;28;20228;-75
2022/12/02 10:52:38;;;;;;;11.40;10.30;;;8.00;46.60;;;;;;10425535;28;20229;-75
2022/12/02 10:57:54;;;;;;;13.97;11.30;;;8.00;46.70;;;;;;10419308;28;20328;-68
2022/12/02 11:03:00;;;;;;;13.80;12.27;;;8.00;46.60;;;;;;10415472;28;20239;-68
2022/12/02 11:08:06;;;;;;;13.50;11.77;;;8.00;46.50;;;;;;10418216;28;20252;-69
2022/12/02 11:13:48;;;;;;;14.37;12.80;;;7.90;46.70;;;;;;10420181;28;20242;-68
2022/12/02 11:18:57;;;;;;;15.87;13.37;;;7.90;46.80;;;;;;10421031;28;20374;-70
2022/12/02 11:24:34;;;;;;;17.57;13.80;;;7.90;46.70;;;;;;10419871;28;20225;-70
2022/12/02 11:29:39;;;;;;;16.07;12.90;;;7.90;46.90;;;;;;10418412;28;20221;-71
2022/12/02 11:34:46;;;;;;;18.03;14.47;;;7.90;47.00;;;;;;10422834;28;20232;-71
2022/12/02 11:40:58;;;;;;;15.80;12.43;;;7.90;47.20;;;;;;10420985;28;20323;-68
2022/12/02 11:46:03;;;;;;;18.33;15.30;;;8.00;47.10;;;;;;10418019;28;20616;-70
2022/12/02 11:51:28;;;;;;;19.63;17.20;;;8.00;47.10;;;;;;10416586;28;20934;-70
2022/12/02 11:56:37;;;;;;;21.07;16.90;;;8.10;46.90;;;;;;10414198;28;20820;-68
2022/12/02 12:01:40;;;;;;;18.43;15.50;;;8.10;46.80;;;;;;10414547;28;20229;-71
2022/12/02 12:06:56;;;;;;;19.70;16.47;;;8.10;46.80;;;;;;10417745;28;20312;-71
2022/12/02 12:12:13;;;;;;;20.97;17.27;;;8.10;46.80;;;;;;10412213;28;20693;-70
2022/12/02 12:17:17;;;;;;;19.20;16.03;;;8.10;46.90;;;;;;10401602;28;20996;-70
2022/12/02 12:22:30;;;;;;;20.10;14.73;;;8.10;46.80;;;;;;10408906;28;20241;-71
2022/12/02 12:27:35;;;;;;;18.90;16.00;;;8.20;47.40;;;;;;10406390;28;20240;-70
2022/12/02 12:32:38;;;;;;;19.57;16.97;;;8.20;46.70;;;;;;10406934;28;20237;-70
2022/12/02 12:37:43;;;;;;;21.73;17.87;;;8.20;46.80;;;;;;10408826;28;20237;-71
2022/12/02 12:42:46;;;;;;;19.67;16.37;;;8.20;46.70;;;;;;10405209;28;20233;-71
2022/12/02 12:47:49;;;;;;;17.33;14.77;;;8.20;46.70;;;;;;10405742;28;20280;-71
2022/12/02 12:52:54;;;;;;;18.23;16.27;;;8.20;46.50;;;;;;10406134;28;20241;-68
2022/12/02 12:57:57;;;;;;;19.90;16.03;;;8.20;46.20;;;;;;10409299;28;20234;-75
2022/12/02 13:03:00;;;;;;;18.80;16.43;;;8.20;46.50;;;;;;10402442;28;20225;-75
2022/12/02 13:08:05;;;;;;;19.27;15.80;;;8.20;46.50;;;;;;10402802;28;20251;-75
2022/12/02 13:13:11;;;;;;;18.00;15.13;;;8.20;46.50;;;;;;10398175;28;20229;-71
2022/12/02 13:18:15;;;;;;;16.13;13.80;;;8.10;46.50;;;;;;10403194;28;20233;-72
2022/12/02 13:23:19;;;;;;;17.57;15.17;;;8.20;46.30;;;;;;10405004;28;20232;-71
2022/12/02 13:28:22;;;;;;;17.67;15.80;;;8.20;46.10;;;;;;10405780;28;20244;-71
2022/12/02 13:33:25;;;;;;;18.27;16.07;;;8.20;46.10;;;;;;10413834;28;20240;-72
2022/12/02 13:38:30;;;;;;;17.20;14.43;;;8.10;46.00;;;;;;10410571;28;20236;-71
2022/12/02 13:43:33;;;;;;;18.83;16.30;;;8.10;46.00;;;;;;10412138;28;20232;-71
2022/12/02 13:48:36;;;;;;;18.13;15.87;;;8.10;46.10;;;;;;10413829;28;20253;-71
2022/12/02 13:53:42;;;;;;;17.17;14.63;;;8.00;46.10;;;;;;10411813;28;20336;-71
2022/12/02 13:58:45;;;;;;;19.73;16.33;;;8.00;46.20;;;;;;10410918;28;20813;-73
2022/12/02 14:03:50;;;;;;;21.10;16.73;;;8.00;46.10;;;;;;10415129;28;20226;-70
2022/12/02 14:08:54;;;;;;;21.30;18.37;;;8.00;46.50;;;;;;10413250;28;20236;-71
2022/12/02 14:13:58;;;;;;;17.60;14.67;;;8.00;46.30;;;;;;10413909;28;20220;-71
2022/12/02 14:19:01;;;;;;;18.27;15.20;;;8.10;46.20;;;;;;10416051;28;20228;-72
2022/12/02 14:24:07;;;;;;;19.87;16.70;;;8.00;46.10;;;;;;10420190;28;20225;-69
2022/12/02 14:29:10;;;;;;;17.77;14.83;;;8.10;46.20;;;;;;10421453;28;20240;-72
2022/12/02 14:34:13;;;;;;;18.50;15.00;;;8.00;46.00;;;;;;10419411;28;20270;-69
2022/12/02 14:39:18;;;;;;;19.33;16.00;;;8.00;46.00;;;;;;10417983;28;20259;-69
2022/12/02 14:44:21;;;;;;;20.20;16.17;;;8.00;46.10;;;;;;10419221;28;20727;-69
2022/12/02 14:49:24;;;;;;;17.33;15.43;;;8.00;46.10;;;;;;10421447;28;20228;-73
2022/12/02 14:54:45;;;;;;;19.03;16.00;;;8.00;46.10;;;;;;10421615;28;20616;-75
2022/12/02 14:59:48;;;;;;;17.30;14.77;;;8.00;46.00;;;;;;10412019;28;20256;-70
2022/12/02 15:04:52;;;;;;;17.17;15.37;;;8.00;46.00;;;;;;10409418;28;20272;-69
2022/12/02 15:09:56;;;;;;;17.47;15.57;;;7.90;46.00;;;;;;10410637;28;20225;-69
2022/12/02 15:15:00;;;;;;;16.80;15.00;;;7.90;46.00;;;;;;10411759;28;21165;-69
2022/12/02 15:20:25;;;;;;;15.83;14.07;;;7.90;46.00;;;;;;10411685;28;20292;-69
2022/12/02 15:25:29;;;;;;;16.63;14.63;;;7.90;46.00;;;;;;10411400;28;20283;-69
2022/12/02 15:30:33;;;;;;;17.73;13.90;;;7.90;46.00;;;;;;10413271;28;20240;-69
2022/12/02 15:35:36;;;;;;;16.50;14.43;;;7.90;46.70;;;;;;10409326;28;21606;-69
2022/12/02 15:40:40;;;;;;;16.87;15.07;;;7.90;46.10;;;;;;10407729;28;20237;-69
2022/12/02 15:45:44;;;;;;;16.80;15.00;;;7.90;46.10;;;;;;10412866;28;21020;-68
2022/12/02 15:50:47;;;;;;;16.83;15.03;;;7.90;46.00;;;;;;10410239;28;20241;-68
2022/12/02 15:55:58;;;;;;;15.43;13.83;;;7.90;46.10;;;;;;10408289;28;20258;-69
2022/12/02 16:01:01;;;;;;;16.33;14.67;;;7.90;46.00;;;;;;10409050;28;20682;-68
2022/12/02 16:06:05;;;;;;;16.90;15.10;;;7.90;46.10;;;;;;10408594;28;20226;-69
2022/12/02 16:11:10;;;;;;;17.10;15.10;;;7.90;46.10;;;;;;10406178;28;20238;-68
2022/12/02 16:16:13;;;;;;;16.27;14.03;;;7.90;46.20;;;;;;10404460;28;20229;-69
2022/12/02 16:21:17;;;;;;;17.80;15.60;;;7.90;46.10;;;;;;10404160;28;20328;-69
2022/12/02 16:26:22;;;;;;;15.30;13.77;;;7.90;46.00;;;;;;10405453;28;20240;-68
2022/12/02 16:31:25;;;;;;;18.17;15.47;;;7.90;46.00;;;;;;10404181;28;20245;-68
2022/12/02 16:36:28;;;;;;;16.83;15.03;;;7.90;46.00;;;;;;10406735;28;20275;-68
2022/12/02 16:41:33;;;;;;;17.43;15.50;;;7.80;45.90;;;;;;10405077;28;21110;-68
2022/12/02 16:46:36;;;;;;;15.13;13.50;;;7.80;45.80;;;;;;10407589;28;20237;-68
2022/12/02 16:51:39;;;;;;;15.80;14.10;;;7.80;45.90;;;;;;10401999;28;20230;-69
2022/12/02 16:56:44;;;;;;;16.33;14.63;;;7.80;46.10;;;;;;10407876;28;20249;-69
2022/12/02 17:01:47;;;;;;;18.07;15.60;;;7.70;46.00;;;;;;10407846;28;20621;-68
2022/12/02 17:06:50;;;;;;;15.60;13.90;;;7.70;45.90;;;;;;10403522;28;20229;-69
2022/12/02 17:11:54;;;;;;;16.23;14.53;;;7.70;46.00;;;;;;10413049;28;20233;-68
2022/12/02 17:16:57;;;;;;;15.80;13.83;;;7.70;46.10;;;;;;10409540;28;20656;-68
2022/12/02 17:22:01;;;;;;;18.40;15.20;;;7.70;46.20;;;;;;10408633;28;20644;-70
2022/12/02 17:27:05;;;;;;;16.07;14.40;;;7.70;46.10;;;;;;10416647;28;20242;-70
2022/12/02 17:32:08;;;;;;;15.97;14.10;;;7.70;46.00;;;;;;10418950;28;20604;-69
2022/12/02 17:37:12;;;;;;;16.07;14.13;;;7.70;46.10;;;;;;10416340;28;20244;-72
2022/12/02 17:42:17;;;;;;;17.57;15.30;;;7.70;46.20;;;;;;10412988;28;20229;-68
2022/12/02 17:47:20;;;;;;;15.10;13.17;;;7.70;46.20;;;;;;10417163;28;20221;-68
2022/12/02 17:52:23;;;;;;;15.23;13.63;;;7.70;46.30;;;;;;10415219;28;20236;-72
2022/12/02 17:57:28;;;;;;;17.47;15.67;;;7.70;46.30;;;;;;10421671;28;20302;-76
2022/12/02 18:02:31;;;;;;;15.43;13.83;;;7.70;46.30;;;;;;10427359;28;20236;-72
2022/12/02 18:07:34;;;;;;;16.30;14.60;;;7.70;46.20;;;;;;10426801;28;20333;-73
2022/12/02 18:12:39;;;;;;;16.10;14.40;;;7.70;46.20;;;;;;10428865;28;20239;-73
2022/12/02 18:17:43;;;;;;;16.13;14.20;;;7.70;46.20;;;;;;10427851;28;20278;-69
2022/12/02 18:22:46;;;;;;;18.47;16.53;;;7.70;46.30;;;;;;10421914;28;20284;-69
2022/12/02 18:27:50;;;;;;;18.63;16.63;;;7.70;46.40;;;;;;10427681;28;20295;-70
2022/12/02 18:32:53;;;;;;;24.47;21.23;;;7.60;46.40;;;;;;10420709;28;20229;-76
2022/12/02 18:37:57;;;;;;;23.20;20.70;;;7.70;46.40;;;;;;10421779;28;20230;-70
2022/12/02 18:43:01;;;;;;;22.07;19.33;;;7.70;46.20;;;;;;10422140;28;20228;-69
2022/12/02 18:48:04;;;;;;;24.03;18.87;;;7.60;46.00;;;;;;10422928;28;20237;-70
2022/12/02 18:53:07;;;;;;;19.93;16.90;;;7.60;45.90;;;;;;10421236;28;20240;-72
2022/12/02 18:58:12;;;;;;;19.80;15.97;;;7.50;46.00;;;;;;10422350;28;20240;-76
2022/12/02 19:03:16;;;;;;;20.67;17.10;;;7.50;46.10;;;;;;10428257;28;20932;-70
2022/12/02 19:08:19;;;;;;;24.80;20.53;;;7.40;46.20;;;;;;10417639;28;20606;-70
2022/12/02 19:13:24;;;;;;;24.03;19.47;;;7.40;46.10;;;;;;10424323;28;20237;-70
2022/12/02 19:18:27;;;;;;;25.87;20.80;;;7.40;46.30;;;;;;10418609;28;20579;-70
2022/12/02 19:23:30;;;;;;;27.37;22.43;;;7.40;46.10;;;;;;10425509;28;20225;-70
2022/12/02 19:28:35;;;;;;;24.60;20.20;;;7.40;46.10;;;;;;10419505;28;20232;-70
2022/12/02 19:33:38;;;;;;;23.77;18.97;;;7.40;46.20;;;;;;10419242;28;20233;-70
2022/12/02 19:38:41;;;;;;;23.30;20.03;;;7.40;46.40;;;;;;10422551;28;20279;-70
2022/12/02 19:43:45;;;;;;;26.10;22.43;;;7.40;46.40;;;;;;10419449;28;20240;-70
2022/12/02 19:48:48;;;;;;;25.20;19.97;;;7.40;46.30;;;;;;10418212;28;20730;-69
2022/12/02 19:53:51;;;;;;;23.77;21.10;;;7.40;46.40;;;;;;10422506;28;20237;-70
2022/12/02 19:58:56;;;;;;;22.23;18.07;;;7.40;46.30;;;;;;10420521;28;20225;-70
2022/12/02 20:03:59;;;;;;;22.17;19.37;;;7.40;46.10;;;;;;10419029;28;20229;-70
2022/12/02 20:09:24;;;;;;;25.50;19.90;;;7.40;45.90;;;;;;10419949;28;20246;-70
2022/12/02 20:14:29;;;;;;;27.40;22.97;;;7.20;45.70;;;;;;10422194;28;20233;-68
2022/12/02 20:19:32;;;;;;;24.13;20.33;;;7.20;46.00;;;;;;10416667;28;20228;-71
2022/12/02 20:24:35;;;;;;;24.53;20.93;;;7.10;46.20;;;;;;10416821;28;20224;-72
2022/12/02 20:29:40;;;;;;;24.17;20.77;;;7.10;46.20;;;;;;10417902;28;20241;-76
2022/12/02 20:34:43;;;;;;;21.90;18.83;;;7.10;46.30;;;;;;10410663;28;20240;-73
2022/12/02 20:39:46;;;;;;;21.30;17.37;;;7.10;46.40;;;;;;10401406;28;20244;-73
2022/12/02 20:44:51;;;;;;;21.20;17.53;;;7.20;46.50;;;;;;10411972;28;20608;-69
2022/12/02 20:49:55;;;;;;;23.23;19.27;;;7.10;46.40;;;;;;10413111;28;20232;-69
2022/12/02 20:54:58;;;;;;;22.87;19.13;;;7.20;46.60;;;;;;10417212;28;20717;-69
2022/12/02 21:00:04;;;;;;;21.50;17.57;;;7.20;46.50;;;;;;10411741;28;20356;-72
2022/12/02 21:05:09;;;;;;;21.17;17.43;;;7.20;46.50;;;;;;10412551;28;20330;-70
2022/12/02 21:10:12;;;;;;;19.33;16.53;;;7.30;46.60;;;;;;10417222;28;20238;-70
2022/12/02 21:15:17;;;;;;;19.93;16.87;;;7.30;46.40;;;;;;10415751;28;20241;-70
2022/12/02 21:20:20;;;;;;;19.23;16.80;;;7.30;46.50;;;;;;10418321;28;20237;-69
2022/12/02 21:25:23;;;;;;;22.73;18.20;;;7.30;46.30;;;;;;10414778;28;20747;-70
2022/12/02 21:30:27;;;;;;;20.37;17.77;;;7.30;46.30;;;;;;10416574;28;20287;-70
2022/12/02 21:35:31;;;;;;;19.40;17.20;;;7.30;46.10;;;;;;10419272;28;22551;-68
2022/12/02 21:40:34;;;;;;;20.00;16.63;;;7.30;46.10;;;;;;10411012;28;20298;-69
2022/12/02 21:45:38;;;;;;;20.70;17.70;;;7.40;46.10;;;;;;10411478;28;20305;-68
2022/12/02 21:50:41;;;;;;;17.97;15.97;;;7.30;46.00;;;;;;10414165;28;20291;-68
2022/12/02 21:55:44;;;;;;;17.27;15.43;;;7.30;46.10;;;;;;10410585;28;20229;-68
2022/12/02 22:01:36;;;;;;;19.53;17.00;;;7.40;46.30;;;;;;10411137;28;20256;-68
2022/12/02 22:06:12;;;;;;;17.80;15.90;;;7.40;46.20;;;;;;10415828;28;20745;-70
2022/12/02 22:11:15;;;;;;;17.73;15.57;;;7.40;46.20;;;;;;10413105;28;20236;-70
2022/12/02 22:16:20;;;;;;;16.93;14.77;;;7.40;46.20;;;;;;10410742;28;20221;-70
2022/12/02 22:21:23;;;;;;;20.23;17.47;;;7.40;46.10;;;;;;10409620;28;20319;-70
2022/12/02 22:26:26;;;;;;;22.27;18.33;;;7.40;46.60;;;;;;10409748;28;20237;-70
2022/12/02 22:31:30;;;;;;;19.97;17.17;;;7.30;45.70;;;;;;10415926;28;20237;-70
2022/12/02 22:36:34;;;;;;;21.33;17.93;;;7.20;45.60;;;;;;10411369;28;20303;-70
2022/12/02 22:41:37;;;;;;;22.87;19.23;;;7.20;45.80;;;;;;10408107;28;20221;-70
2022/12/02 22:46:41;;;;;;;22.83;19.70;;;7.20;45.80;;;;;;10416656;28;20233;-69
2022/12/02 22:51:45;;;;;;;21.80;19.43;;;7.10;45.80;;;;;;10420649;28;20744;-70
2022/12/02 22:56:48;;;;;;;22.47;19.10;;;7.10;45.70;;;;;;10416616;28;20225;-70
2022/12/02 23:01:52;;;;;;;22.67;19.47;;;7.10;45.70;;;;;;10423899;28;20225;-70
2022/12/02 23:06:55;;;;;;;21.33;18.67;;;7.00;45.50;;;;;;10416604;28;20225;-70
2022/12/02 23:11:58;;;;;;;21.07;18.67;;;7.00;45.50;;;;;;10415839;28;20236;-70
2022/12/02 23:17:03;;;;;;;21.83;19.13;;;7.00;45.60;;;;;;10419185;28;20229;-72
2022/12/02 23:22:06;;;;;;;21.63;18.70;;;7.00;45.70;;;;;;10418698;28;20237;-69
2022/12/02 23:27:09;;;;;;;21.03;18.27;;;6.90;45.30;;;;;;10418059;28;20267;-68
2022/12/02 23:32:14;;;;;;;20.43;17.60;;;6.90;45.30;;;;;;10408130;28;20229;-67
2022/12/02 23:37:17;;;;;;;21.23;18.87;;;6.70;45.10;;;;;;10425559;28;20276;-67
2022/12/02 23:42:20;;;;;;;20.73;17.83;;;6.70;45.20;;;;;;10416642;28;20239;-67
2022/12/02 23:47:25;;;;;;;21.67;18.57;;;6.60;45.20;;;;;;10420160;28;20230;-67
2022/12/02 23:52:28;;;;;;;20.90;17.70;;;6.60;45.30;;;;;;10413589;28;20238;-67
2022/12/02 23:57:31;;;;;;;20.33;17.53;;;6.60;45.60;;;;;;10425874;28;20237;-75
